Terminal Aerodrome Forecast
Issued by NWS

Home | Current Version | Previous Version | Text Only | Print | Product List | Glossary On
Versions: 1 2 3 4 5 6 7 8 9 10 11 12 13 14 15 16 17 18 19
000
FTUS41 KBGM 080859 AAA
TAFITH
TAF AMD
KITH 080859Z 0809/0906 23007KT P6SM OVC080
     FM081600 26010KT P6SM OVC040
     FM081800 26010G17KT 2SM -SHSN OVC025
     FM082200 27011KT P6SM BKN035=

USA.gov is the U.S. government's official web portal to all federal, state and local government web resources and services.